• Join FlightAware (Why Join?)
  • Login
  • US Flag 
Rudolph Flight #1: Scheduled 
07:37PM EST


 

Airport Tracker/Info


-or-


 

Live Flight TrackerFlight Track Log ✈ CSN6161 ✈ 07-May-2012 ✈ ZBAA / PEK - ZUUU / CTU

Flight Track Log - Related Links

Times and Time Zones

All times are in EDT time to prevent confusion due to time zone crossing. See the CSN6161 flight status page for this flight to view local times or setup timezone preferences in your user account.

Time Position Orientation Groundspeed Altitude Reporting Facility
EDT Latitude Longitude Course Direction KTS MPH feet Rate Location/Type
08:54PM 39.1682 115.1382 230° Southwest  Level Estimated
08:55PM 39.1089 115.0463 230° Southwest  Level Estimated
08:56PM 39.0495 114.9547 230° Southwest  Level Estimated
08:57PM 38.9901 114.8632 230° Southwest  Level Estimated
08:58PM 38.9305 114.7718 230° Southwest  Level Estimated
08:59PM 38.8709 114.6806 230° Southwest  Level Estimated
09:00PM 38.8113 114.5895 230° Southwest  Level Estimated
09:01PM 38.7515 114.4986 230° Southwest  Level Estimated
09:02PM 38.6917 114.4079 230° Southwest  Level Estimated
09:03PM 38.6318 114.3173 230° Southwest  Level Estimated
09:04PM 38.5719 114.2269 230° Southwest  Level Estimated
09:05PM 38.5119 114.1366 230° Southwest  Level Estimated
09:06PM 38.4518 114.0464 230° Southwest  Level Estimated
09:07PM 38.3916 113.9564 229° Southwest  Level Estimated
09:08PM 38.3314 113.8666 229° Southwest  Level Estimated
09:09PM 38.2711 113.7769 229° Southwest  Level Estimated
09:10PM 38.2107 113.6873 229° Southwest  Level Estimated
09:11PM 38.1503 113.5979 229° Southwest  Level Estimated
09:12PM 38.0898 113.5087 229° Southwest  Level Estimated
09:13PM 38.0292 113.4196 229° Southwest  Level Estimated
09:14PM 37.9686 113.3306 229° Southwest  Level Estimated
09:15PM 37.9079 113.2418 229° Southwest  Level Estimated
09:16PM 37.8471 113.1532 229° Southwest  Level Estimated
09:17PM 37.7863 113.0647 229° Southwest  Level Estimated
09:18PM 37.7254 112.9763 229° Southwest  Level Estimated
09:19PM 37.6644 112.8881 229° Southwest  Level Estimated
09:20PM 37.6034 112.8000 229° Southwest  Level Estimated
09:21PM 37.5423 112.7121 229° Southwest  Level Estimated
09:22PM 37.4811 112.6243 229° Southwest  Level Estimated
09:23PM 37.4199 112.5366 229° Southwest  Level Estimated
09:24PM 37.3586 112.4491 229° Southwest  Level Estimated
09:25PM 37.2972 112.3618 229° Southwest  Level Estimated
09:26PM 37.2358 112.2746 228° Southwest  Level Estimated
09:27PM 37.1744 112.1875 228° Southwest  Level Estimated
09:28PM 37.1128 112.1005 228° Southwest  Level Estimated
09:29PM 37.0512 112.0137 228° Southwest  Level Estimated
09:30PM 36.9895 111.9271 228° Southwest  Level Estimated
09:31PM 36.9278 111.8406 228° Southwest  Level Estimated
09:32PM 36.8660 111.7542 228° Southwest  Level Estimated
09:33PM 36.8041 111.6680 228° Southwest  Level Estimated
09:34PM 36.7422 111.5819 228° Southwest  Level Estimated
09:35PM 36.6802 111.4959 228° Southwest  Level Estimated
09:36PM 36.6182 111.4101 228° Southwest  Level Estimated
09:37PM 36.5560 111.3245 228° Southwest  Level Estimated
09:38PM 36.4939 111.2389 228° Southwest  Level Estimated
09:39PM 36.4316 111.1535 228° Southwest  Level Estimated
09:40PM 36.3694 111.0683 228° Southwest  Level Estimated
09:41PM 36.3070 110.9831 228° Southwest  Level Estimated
09:42PM 36.2446 110.8981 228° Southwest  Level Estimated
09:43PM 36.1821 110.8133 228° Southwest  Level Estimated
09:44PM 36.1196 110.7286 228° Southwest  Level Estimated
09:45PM 36.0570 110.6440 227° Southwest  Level Estimated
09:46PM 35.9944 110.5595 227° Southwest  Level Estimated
09:47PM 35.9316 110.4752 227° Southwest  Level Estimated
09:48PM 35.8689 110.3910 227° Southwest  Level Estimated
09:49PM 35.8060 110.3070 227° Southwest  Level Estimated
09:50PM 35.7432 110.2231 227° Southwest  Level Estimated
09:51PM 35.6802 110.1393 227° Southwest  Level Estimated
09:52PM 35.6172 110.0556 227° Southwest  Level Estimated
09:53PM 35.5542 109.9721 227° Southwest  Level Estimated
09:54PM 35.4910 109.8887 227° Southwest  Level Estimated
09:55PM 35.4279 109.8055 227° Southwest  Level Estimated
09:56PM 35.3646 109.7223 227° Southwest  Level Estimated
09:57PM 35.3013 109.6393 227° Southwest  Level Estimated
09:58PM 35.2380 109.5565 227° Southwest  Level Estimated
09:59PM 35.1746 109.4737 227° Southwest  Level Estimated
10:00PM 35.1111 109.3911 227° Southwest  Level Estimated
10:01PM 35.0476 109.3086 227° Southwest  Level Estimated
10:02PM 34.9841 109.2263 227° Southwest  Level Estimated
10:03PM 34.9204 109.1441 227° Southwest  Level Estimated
10:04PM 34.8568 109.0620 227° Southwest  Level Estimated
10:05PM 34.7930 108.9800 227° Southwest  Level Estimated
10:06PM 34.7292 108.8981 226° Southwest  Level Estimated
10:07PM 34.6654 108.8164 226° Southwest  Level Estimated
10:08PM 34.6015 108.7348 226° Southwest  Level Estimated
10:09PM 34.5375 108.6534 226° Southwest  Level Estimated
10:10PM 34.4735 108.5720 226° Southwest  Level Estimated
10:11PM 34.4095 108.4908 226° Southwest  Level Estimated
10:12PM 34.3453 108.4097 226° Southwest  Level Estimated
10:13PM 34.2812 108.3288 226° Southwest  Level Estimated
10:14PM 34.2169 108.2479 226° Southwest  Level Estimated
10:15PM 34.1527 108.1672 226° Southwest  Level Estimated
10:16PM 34.0883 108.0866 226° Southwest  Level Estimated
10:17PM 34.0240 108.0061 226° Southwest  Level Estimated
10:18PM 33.9595 107.9258 226° Southwest  Level Estimated
10:19PM 33.8951 107.8455 226° Southwest  Level Estimated
10:20PM 33.8305 107.7654 226° Southwest  Level Estimated
10:21PM 33.7659 107.6854 226° Southwest  Level Estimated
10:22PM 33.7013 107.6056 226° Southwest  Level Estimated
10:23PM 33.6366 107.5258 226° Southwest  Level Estimated
10:24PM 33.5719 107.4462 226° Southwest  Level Estimated
10:25PM 33.5071 107.3667 226° Southwest  Level Estimated
10:26PM 33.4422 107.2873 226° Southwest  Level Estimated
10:27PM 33.3773 107.2080 226° Southwest  Level Estimated
10:28PM 33.3124 107.1289 225° Southwest  Level Estimated
10:29PM 33.2474 107.0498 225° Southwest  Level Estimated
10:30PM 33.1824 106.9709 225° Southwest  Level Estimated
10:31PM 33.1173 106.8921 225° Southwest  Level Estimated
10:32PM 33.0521 106.8134 225° Southwest  Level Estimated
10:33PM 32.9869 106.7348 225° Southwest  Level Estimated
10:34PM 32.9217 106.6564 225° Southwest  Level Estimated
10:35PM 32.8564 106.5780 225° Southwest  Level Estimated
10:36PM 32.7911 106.4998 225° Southwest  Level Estimated
10:37PM 32.7257 106.4217 225° Southwest  Level Estimated
10:38PM 32.6603 106.3437 225° Southwest  Level Estimated
10:39PM 32.5948 106.2659 225° Southwest  Level Estimated
10:40PM 32.5292 106.1881 225° Southwest  Level Estimated
10:41PM 32.4637 106.1105 225° Southwest  Level Estimated
10:42PM 32.3980 106.0329 225° Southwest  Level Estimated
10:43PM 32.3324 105.9555 225° Southwest  Level Estimated
10:44PM 32.2666 105.8782 225° Southwest  Level Estimated
10:45PM 32.2009 105.8010 225° Southwest  Level Estimated
10:46PM 32.1350 105.7239 225° Southwest  Level Estimated
10:47PM 32.0692 105.6469 225° Southwest  Level Estimated
10:48PM 32.0033 105.5700 225° Southwest  Level Estimated
10:49PM 31.9373 105.4933 225° Southwest  Level Estimated
10:50PM 31.8713 105.4166 225° Southwest  Level Estimated
10:51PM 31.8053 105.3401 225° Southwest  Level Estimated
10:52PM 31.7392 105.2637 224° Southwest  Level Estimated
10:53PM 31.6730 105.1874 224° Southwest  Level Estimated
10:54PM 31.6068 105.1112 224° Southwest  Level Estimated
10:55PM 31.5406 105.0350 224° Southwest  Level Estimated
10:56PM 31.4743 104.9591 224° Southwest  Level Estimated
10:57PM 31.4080 104.8832 224° Southwest  Level Estimated
10:58PM 31.3417 104.8074 224° Southwest  Level Estimated
10:59PM 31.2753 104.7317 224° Southwest  Level Estimated
11:00PM 31.2088 104.6562 224° Southwest  Level Estimated
11:01PM 31.1423 104.5807 224° Southwest  Level Estimated
11:02PM 31.0758 104.5053 224° Southwest  Level Estimated
11:03PM 31.0092 104.4301 224° Southwest  Level Estimated
11:04PM 30.9426 104.3549 224° Southwest  Level Estimated
11:05PM 30.8759 104.2799 224° Southwest  Level Estimated
11:06PM 30.8092 104.2050 224° Southwest  Level Estimated
11:07PM 30.7424 104.1301 224° Southwest  Level Estimated
11:08PM 30.6756 104.0554 224° Southwest  Level Estimated
11:09PM 30.6088 103.9808 224° Southwest  Level Estimated
11:10PM 30.5419 103.9063 44° Northeast  Level Estimated
11:11PM 30.6088 103.9808 224° Southwest  Level Estimated
11:12PM 30.5419 103.9063 44° Northeast  Level Estimated
11:13PM 30.6088 103.9808 224° Southwest  Level Estimated
11:14PM 30.5419 103.9063 44° Northeast  Level Estimated
11:15PM 30.6088 103.9808 224° Southwest  Level Estimated
11:16PM 30.5419 103.9063 44° Northeast  Level Estimated
11:17PM 30.6088 103.9808 224° Southwest  Level Estimated
11:18PM 30.5419 103.9063 44° Northeast  Level Estimated
11:19PM 30.6088 103.9808 224° Southwest  Level Estimated
11:20PM 30.5419 103.9063 44° Northeast  Level Estimated
11:21PM 30.6088 103.9808 224° Southwest  Level Estimated
11:22PM 30.5419 103.9063 44° Northeast  Level Estimated
11:23PM 30.6088 103.9808 224° Southwest  Level Estimated
11:24PM 30.5419 103.9063 44° Northeast  Level Estimated
11:25PM 30.6088 103.9808 44° Northeast  Level Estimated